KBBD/BBD METAR and TAF weather

Enter ICAO airport designator
Station Type Date Time Source
KBBD METAR 2019/05/20 10:35 UTC NOAA

KBBD 201035Z AUTO 14009KT 10SM FEW018 BKN024 OVC044 22/20 A2979 RMK AO2


Station Type Date Time Source
KBBD Decoded METAR 2019/05/20 10:35 UTC NOAA

Brady, Curtis Field Airport, TX, United States (KBBD) 31-10-45N 099-19-26W
May 20, 2019 - 06:35 AM EDT / 2019.05.20 1035 UTC
Wind: from the SE (140 degrees) at 10 MPH (9 KT):0
Visibility: 10 mile(s):0
Sky conditions: overcast
Temperature: 71 F (22 C)
Dew Point: 68 F (20 C)
Relative Humidity: 88%
Pressure (altimeter): 29.79 in. Hg (1008 hPa)
ob: KBBD 201035Z AUTO 14009KT 10SM FEW018 BKN024 OVC044 22/20 A2979 RMK AO2
cycle: 10

Station Type Date Time Source
KBBD TAF 2019/05/20 06:22 UTC NOAA

TAF KBBD 200520Z 2006/2106 12005KT P6SM BKN015
FM202100 15021G32KT P6SM VCTS OVC050CB

Example: see airport list